createdAt,value
2023-04-09T00:01:06.068Z,41.35
2023-04-09T00:03:34.583Z,41.03
2023-04-09T00:06:03.011Z,39.38
2023-04-09T00:08:32.552Z,40.85
2023-04-09T00:11:01.050Z,42.60
2023-04-09T00:13:38.592Z,40.00
2023-04-09T00:16:09.507Z,41.10
2023-04-09T00:18:38.159Z,39.05
2023-04-09T00:21:08.409Z,40.97
2023-04-09T00:23:38.006Z,40.83
2023-04-09T00:26:06.673Z,40.22
2023-04-09T00:28:34.717Z,38.85
2023-04-09T00:31:03.062Z,38.72
2023-04-09T00:33:31.123Z,38.85
2023-04-09T00:35:59.396Z,39.53
2023-04-09T00:38:27.613Z,39.65
2023-04-09T00:40:57.238Z,39.30
2023-04-09T00:43:25.462Z,40.25
2023-04-09T00:45:53.671Z,38.75
2023-04-09T00:48:22.388Z,37.67
2023-04-09T00:50:50.830Z,38.88
2023-04-09T00:53:19.657Z,39.95
2023-04-09T00:55:48.263Z,40.05
2023-04-09T00:58:17.741Z,38.45
2023-04-09T01:00:46.017Z,39.33
2023-04-09T01:03:14.615Z,38.13
2023-04-09T01:05:51.040Z,38.53
2023-04-09T01:08:29.546Z,37.92
2023-04-09T01:11:11.219Z,36.88
2023-04-09T01:13:50.571Z,38.20
2023-04-09T01:16:23.604Z,37.28
2023-04-09T01:18:57.469Z,36.38
2023-04-09T01:21:31.226Z,42.50
2023-04-09T01:24:16.969Z,37.95
2023-04-09T01:26:59.538Z,39.00
2023-04-09T01:29:40.883Z,39.00
2023-04-09T01:32:09.891Z,39.75
2023-04-09T01:34:38.881Z,37.55
2023-04-09T01:37:07.988Z,36.78
2023-04-09T01:39:38.103Z,36.85
2023-04-09T01:42:09.788Z,36.42
2023-04-09T01:44:40.347Z,34.92
2023-04-09T01:47:09.469Z,35.45
2023-04-09T01:49:38.693Z,34.03
2023-04-09T01:52:07.195Z,34.75
2023-04-09T01:54:35.206Z,36.80
2023-04-09T01:57:03.488Z,34.70
2023-04-09T01:59:31.691Z,35.42
2023-04-09T02:02:07.296Z,36.45
2023-04-09T02:04:40.005Z,35.42
2023-04-09T02:07:15.523Z,36.30
2023-04-09T02:09:47.058Z,34.63
2023-04-09T02:12:18.695Z,34.15
2023-04-09T02:14:49.291Z,33.45
2023-04-09T02:17:19.603Z,34.75
2023-04-09T02:19:48.745Z,33.65
2023-04-09T02:22:18.005Z,34.13
2023-04-09T02:24:47.932Z,32.05
2023-04-09T02:27:16.241Z,32.83
2023-04-09T02:29:44.283Z,32.25
2023-04-09T02:32:14.157Z,31.42
2023-04-09T02:34:43.597Z,32.05
2023-04-09T02:37:11.798Z,30.95
2023-04-09T02:39:39.862Z,29.38
2023-04-09T02:42:08.241Z,28.35
2023-04-09T02:44:36.413Z,31.38
2023-04-09T02:47:05.123Z,30.60
2023-04-09T02:49:33.193Z,29.15
2023-04-09T02:52:02.687Z,28.55
2023-04-09T02:54:30.940Z,28.30
2023-04-09T02:56:59.043Z,26.95
2023-04-09T02:59:27.274Z,26.40
2023-04-09T03:01:55.701Z,28.05
2023-04-09T03:04:23.805Z,25.58
2023-04-09T03:06:52.143Z,26.27
2023-04-09T03:09:21.785Z,26.10
2023-04-09T03:11:49.938Z,25.95
2023-04-09T03:14:17.996Z,26.23
2023-04-09T03:16:46.767Z,24.80
2023-04-09T03:19:14.890Z,23.45
2023-04-09T03:21:43.159Z,23.45
2023-04-09T03:24:11.768Z,23.67
2023-04-09T03:26:42.259Z,24.52
2023-04-09T03:29:11.848Z,24.27
2023-04-09T03:31:40.230Z,24.30
2023-04-09T03:34:08.885Z,23.25
2023-04-09T03:36:37.030Z,24.38
2023-04-09T03:39:11.090Z,23.98
2023-04-09T03:41:44.431Z,22.00
2023-04-09T03:44:16.504Z,22.88
2023-04-09T03:47:10.586Z,23.85
2023-04-09T03:49:40.162Z,23.05
2023-04-09T03:52:18.896Z,22.83
2023-04-09T03:54:54.000Z,24.00
2023-04-09T03:57:26.472Z,23.80
2023-04-09T03:59:56.436Z,24.15
2023-04-09T04:02:27.064Z,25.42
2023-04-09T04:05:03.492Z,24.73
2023-04-09T04:07:37.009Z,25.65
2023-04-09T04:10:13.414Z,27.33
2023-04-09T04:12:46.970Z,26.45
2023-04-09T04:15:26.357Z,25.70
2023-04-09T04:17:56.993Z,26.33
2023-04-09T04:20:45.672Z,27.83
2023-04-09T04:23:15.626Z,26.98
2023-04-09T04:26:09.902Z,27.42
2023-04-09T04:31:10.952Z,26.35
2023-04-09T04:33:41.962Z,25.88
2023-04-09T04:36:15.570Z,25.92
2023-04-09T04:38:49.558Z,27.05
2023-04-09T04:41:24.887Z,28.17
2023-04-09T04:44:00.722Z,26.92
2023-04-09T04:46:29.186Z,25.92
2023-04-09T04:48:57.270Z,25.55
2023-04-09T04:51:27.425Z,25.48
2023-04-09T04:54:03.672Z,26.13
2023-04-09T04:56:32.404Z,24.77
2023-04-09T04:59:07.143Z,23.40
2023-04-09T05:01:47.744Z,25.77
2023-04-09T05:04:16.326Z,26.55
2023-04-09T05:06:44.384Z,27.20
2023-04-09T05:09:22.234Z,26.65
2023-04-09T05:12:10.958Z,27.08
2023-04-09T05:14:40.929Z,29.05
2023-04-09T05:17:10.064Z,30.23
2023-04-09T05:19:45.044Z,29.83
2023-04-09T05:22:14.284Z,26.90
2023-04-09T05:24:42.309Z,26.88
2023-04-09T05:27:12.033Z,25.13
2023-04-09T05:29:42.670Z,25.05
2023-04-09T05:32:11.658Z,24.70
2023-04-09T05:34:41.597Z,24.20
2023-04-09T05:37:09.891Z,23.60
2023-04-09T05:39:38.037Z,23.83
2023-04-09T05:42:07.089Z,23.10
2023-04-09T05:44:39.819Z,24.05
2023-04-09T05:47:18.383Z,23.00
2023-04-09T05:49:57.624Z,22.05
2023-04-09T05:52:27.012Z,23.33
2023-04-09T05:54:55.739Z,20.77
2023-04-09T05:57:32.065Z,22.17
2023-04-09T06:00:03.902Z,20.17
2023-04-09T06:02:46.694Z,23.42
2023-04-09T06:05:15.101Z,24.38
2023-04-09T06:07:43.264Z,24.33
2023-04-09T06:10:11.768Z,23.70
2023-04-09T06:12:40.537Z,23.67
2023-04-09T06:15:09.291Z,22.80
2023-04-09T06:17:37.556Z,23.77
2023-04-09T06:20:08.139Z,22.90
2023-04-09T06:22:36.386Z,24.35
2023-04-09T06:25:05.194Z,23.73
2023-04-09T06:27:33.264Z,24.13
2023-04-09T06:30:01.292Z,23.98
2023-04-09T06:32:30.683Z,24.15
2023-04-09T06:35:00.364Z,25.27
2023-04-09T06:37:29.949Z,23.15
2023-04-09T06:40:01.405Z,23.08
2023-04-09T06:42:29.836Z,20.88
2023-04-09T06:45:08.835Z,20.88
2023-04-09T06:47:37.220Z,20.65
2023-04-09T06:50:06.272Z,19.27
2023-04-09T06:52:36.184Z,19.67
2023-04-09T06:55:04.356Z,19.40
2023-04-09T06:57:32.620Z,18.33
2023-04-09T07:00:00.814Z,18.20
2023-04-09T07:02:29.163Z,17.20
2023-04-09T07:04:57.359Z,16.38
2023-04-09T07:07:26.001Z,16.58
2023-04-09T07:09:55.551Z,18.10
2023-04-09T07:12:30.574Z,18.20
2023-04-09T07:14:59.539Z,18.60
2023-04-09T07:17:27.614Z,20.55
2023-04-09T07:19:56.651Z,19.48
2023-04-09T07:22:26.611Z,19.58
2023-04-09T07:24:56.687Z,17.70
2023-04-09T07:27:26.281Z,17.25
2023-04-09T07:29:56.121Z,17.05
2023-04-09T07:32:24.780Z,17.85
2023-04-09T07:34:53.758Z,17.95
2023-04-09T07:37:22.483Z,17.35
2023-04-09T07:39:51.224Z,17.08
2023-04-09T07:42:20.964Z,17.48
2023-04-09T07:44:49.044Z,18.15
2023-04-09T07:47:17.078Z,16.77
2023-04-09T07:49:45.502Z,17.08
2023-04-09T07:52:13.533Z,17.35
2023-04-09T07:54:41.756Z,16.98
2023-04-09T07:57:09.982Z,17.20
2023-04-09T07:59:39.470Z,16.55
2023-04-09T08:02:08.654Z,17.25
2023-04-09T08:04:37.164Z,15.30
2023-04-09T08:07:05.398Z,15.55
2023-04-09T08:09:33.624Z,16.67
2023-04-09T08:12:01.925Z,16.33
2023-04-09T08:14:30.384Z,16.45
2023-04-09T08:17:01.616Z,14.85
2023-04-09T08:19:29.745Z,15.77
2023-04-09T08:21:58.766Z,15.10
2023-04-09T08:24:27.336Z,16.13
2023-04-09T08:26:56.814Z,15.73
2023-04-09T08:29:24.887Z,15.70
2023-04-09T08:31:52.944Z,17.10
2023-04-09T08:34:22.788Z,15.60
2023-04-09T08:36:51.213Z,15.98
2023-04-09T08:39:20.677Z,13.95
2023-04-09T08:41:49.211Z,14.38
2023-04-09T08:44:17.651Z,12.93
2023-04-09T08:46:45.735Z,15.60
2023-04-09T08:49:14.520Z,13.10
2023-04-09T08:51:47.286Z,14.68
2023-04-09T08:54:18.796Z,13.02
2023-04-09T08:56:46.974Z,14.73
2023-04-09T08:59:18.489Z,13.07
2023-04-09T09:01:48.208Z,13.10
2023-04-09T09:04:16.709Z,13.85
2023-04-09T09:06:46.568Z,12.98
2023-04-09T09:09:16.735Z,13.55
2023-04-09T09:11:47.246Z,14.00
2023-04-09T09:14:17.121Z,15.55
2023-04-09T09:16:58.641Z,14.95
2023-04-09T09:19:31.478Z,13.35
2023-04-09T09:22:02.375Z,13.75
2023-04-09T09:24:32.452Z,13.48
2023-04-09T09:27:00.585Z,11.32
2023-04-09T09:29:29.491Z,12.02
2023-04-09T09:31:57.935Z,11.55
2023-04-09T09:34:27.253Z,12.43
2023-04-09T09:36:55.513Z,14.18
2023-04-09T09:39:25.158Z,14.60
2023-04-09T09:42:09.164Z,13.23
2023-04-09T09:44:37.557Z,11.75
2023-04-09T09:47:06.240Z,12.45
2023-04-09T09:49:34.497Z,11.75
2023-04-09T09:52:06.326Z,14.02
2023-04-09T09:54:42.663Z,12.88
2023-04-09T09:57:13.713Z,13.48
2023-04-09T09:59:48.577Z,12.88
2023-04-09T10:02:21.254Z,11.68
2023-04-09T10:04:51.089Z,10.88
2023-04-09T10:07:21.761Z,12.20
2023-04-09T10:09:54.943Z,10.32
2023-04-09T10:12:24.735Z,12.70
2023-04-09T10:14:53.248Z,11.63
2023-04-09T10:17:22.095Z,11.68
2023-04-09T10:19:57.444Z,11.35
2023-04-09T10:22:30.561Z,14.63
2023-04-09T10:25:00.555Z,10.65
2023-04-09T10:27:29.002Z,11.68
2023-04-09T10:29:57.419Z,9.93
2023-04-09T10:32:27.995Z,10.73
2023-04-09T10:34:59.503Z,9.88
2023-04-09T10:37:29.841Z,12.15
2023-04-09T10:39:59.325Z,11.15
2023-04-09T10:42:31.743Z,11.43
2023-04-09T10:45:10.485Z,11.70
2023-04-09T10:47:40.484Z,10.65
2023-04-09T10:50:19.681Z,9.25
2023-04-09T10:52:48.517Z,10.68
2023-04-09T10:55:36.610Z,8.38
2023-04-09T10:58:06.400Z,11.07
2023-04-09T11:00:38.166Z,9.73
2023-04-09T11:03:21.908Z,10.88
2023-04-09T11:05:53.498Z,9.40
2023-04-09T11:08:22.605Z,10.30
2023-04-09T11:10:56.695Z,8.32
2023-04-09T11:13:25.338Z,9.75
2023-04-09T11:15:53.414Z,9.40
2023-04-09T11:18:22.557Z,9.30
2023-04-09T11:20:50.988Z,8.55
2023-04-09T11:23:19.660Z,7.68
2023-04-09T11:25:52.139Z,8.27
2023-04-09T11:28:21.388Z,8.18
2023-04-09T11:30:52.677Z,7.60
2023-04-09T11:33:21.075Z,7.88
2023-04-09T11:35:49.464Z,10.02
2023-04-09T11:38:17.883Z,10.02
2023-04-09T11:40:49.559Z,7.28
2023-04-09T11:43:20.876Z,7.00
2023-04-09T11:45:49.449Z,8.20
2023-04-09T11:48:18.654Z,7.60
2023-04-09T11:50:47.854Z,7.43
2023-04-09T11:53:20.296Z,7.43
2023-04-09T11:55:52.455Z,7.20
2023-04-09T11:58:25.601Z,5.90
2023-04-09T12:00:59.151Z,6.88
2023-04-09T12:03:32.418Z,7.60
2023-04-09T12:06:02.557Z,6.32
2023-04-09T12:08:31.168Z,7.15
2023-04-09T12:11:10.190Z,6.63
2023-04-09T12:13:43.000Z,5.70
2023-04-09T12:16:11.650Z,5.60
2023-04-09T12:18:39.918Z,6.65
2023-04-09T12:21:08.196Z,6.28
2023-04-09T12:23:36.422Z,5.55
2023-04-09T12:26:04.658Z,6.57
2023-04-09T12:28:32.649Z,6.18
2023-04-09T12:31:03.652Z,6.63
2023-04-09T12:33:32.238Z,6.32
2023-04-09T12:36:00.555Z,5.40
2023-04-09T12:38:28.907Z,6.43
2023-04-09T12:40:56.946Z,5.53
2023-04-09T12:43:25.369Z,6.03
2023-04-09T12:45:53.633Z,5.57
2023-04-09T12:48:23.103Z,5.22
2023-04-09T12:50:51.141Z,5.22
2023-04-09T12:53:19.407Z,5.45
2023-04-09T12:55:47.412Z,5.95
2023-04-09T12:58:15.622Z,6.55
2023-04-09T13:00:43.805Z,5.68
2023-04-09T13:03:12.049Z,5.07
2023-04-09T13:05:41.856Z,5.10
2023-04-09T13:08:10.100Z,6.45
2023-04-09T13:10:38.103Z,6.07
2023-04-09T13:13:08.166Z,5.47
2023-04-09T13:15:36.428Z,6.10
2023-04-09T13:18:04.701Z,6.15
2023-04-09T13:20:32.799Z,6.63
2023-04-09T13:23:02.458Z,6.00
2023-04-09T13:25:30.713Z,6.53
2023-04-09T13:27:58.955Z,6.07
2023-04-09T13:30:27.131Z,7.60
2023-04-09T13:32:55.322Z,5.70
2023-04-09T13:35:23.570Z,6.13
2023-04-09T13:37:51.803Z,7.00
2023-04-09T13:40:21.244Z,6.53
2023-04-09T13:42:49.279Z,6.45
2023-04-09T13:45:17.923Z,6.32
2023-04-09T13:47:46.017Z,6.95
2023-04-09T13:50:14.047Z,6.25
2023-04-09T13:52:42.180Z,7.63
2023-04-09T13:55:11.495Z,8.50
2023-04-09T13:57:41.005Z,7.03
2023-04-09T14:00:10.233Z,8.00
2023-04-09T14:02:38.377Z,7.28
2023-04-09T14:05:07.096Z,8.05
2023-04-09T14:07:35.398Z,8.80
2023-04-09T14:10:03.555Z,8.55
2023-04-09T14:12:31.659Z,9.38
2023-04-09T14:15:01.213Z,9.15
2023-04-09T14:17:29.327Z,8.75
2023-04-09T14:19:57.879Z,8.15
2023-04-09T14:22:27.412Z,8.80
2023-04-09T14:24:55.536Z,9.95
2023-04-09T14:27:23.797Z,10.13
2023-04-09T14:29:52.525Z,9.82
2023-04-09T14:32:21.963Z,9.07
2023-04-09T14:34:49.992Z,9.73
2023-04-09T14:37:18.130Z,8.90
2023-04-09T14:39:46.169Z,8.32
2023-04-09T14:42:14.366Z,9.70
2023-04-09T14:44:42.421Z,10.60
2023-04-09T14:47:10.465Z,10.05
2023-04-09T14:49:39.828Z,10.38
2023-04-09T14:52:08.022Z,10.38
2023-04-09T14:54:37.789Z,8.77
2023-04-09T14:57:06.877Z,9.63
2023-04-09T14:59:35.407Z,10.45
2023-04-09T15:02:04.140Z,10.43
2023-04-09T15:04:32.330Z,9.48
2023-04-09T15:07:01.899Z,9.43
2023-04-09T15:09:29.949Z,9.90
2023-04-09T15:11:58.226Z,10.65
2023-04-09T15:14:29.304Z,10.60
2023-04-09T15:16:57.388Z,10.95
2023-04-09T15:19:25.421Z,11.18
2023-04-09T15:21:53.484Z,10.20
2023-04-09T15:24:22.830Z,10.95
2023-04-09T15:26:51.211Z,9.15
2023-04-09T15:29:19.285Z,9.38
2023-04-09T15:31:48.796Z,11.13
2023-04-09T15:34:16.987Z,9.90
2023-04-09T15:36:46.292Z,11.85
2023-04-09T15:39:14.286Z,10.88
2023-04-09T15:41:43.725Z,11.48
2023-04-09T15:44:11.986Z,10.23
2023-04-09T15:46:40.106Z,11.15
2023-04-09T15:49:08.250Z,9.57
2023-04-09T15:51:36.712Z,10.65
2023-04-09T15:54:04.882Z,11.05
2023-04-09T15:56:33.064Z,10.80
2023-04-09T15:59:05.324Z,8.82
2023-04-09T16:01:33.566Z,10.63
2023-04-09T16:04:01.693Z,11.32
2023-04-09T16:06:30.364Z,11.55
2023-04-09T16:08:58.481Z,11.23
2023-04-09T16:11:26.727Z,11.73
2023-04-09T16:13:56.116Z,11.80
2023-04-09T16:16:26.015Z,10.55
2023-04-09T16:18:54.303Z,10.10
2023-04-09T16:21:23.364Z,13.13
2023-04-09T16:23:51.622Z,17.10
2023-04-09T16:26:19.746Z,17.10
2023-04-09T16:28:47.782Z,16.67
2023-04-09T16:31:16.278Z,17.95
2023-04-09T16:33:45.792Z,18.52
2023-04-09T16:36:14.069Z,17.45
2023-04-09T16:38:42.076Z,18.10
2023-04-09T16:41:10.149Z,19.48
2023-04-09T16:43:38.214Z,19.17
2023-04-09T16:46:07.395Z,20.45
2023-04-09T16:48:37.088Z,19.67
2023-04-09T16:51:06.997Z,22.13
2023-04-09T16:53:37.641Z,21.98
2023-04-09T16:56:08.548Z,21.55
2023-04-09T16:58:36.565Z,21.92
2023-04-09T17:01:05.193Z,24.83
2023-04-09T17:03:33.388Z,23.58
2023-04-09T17:06:01.822Z,24.27
2023-04-09T17:08:31.232Z,24.00
2023-04-09T17:11:02.669Z,22.70
2023-04-09T17:13:35.046Z,22.55
2023-04-09T17:16:03.600Z,21.92
2023-04-09T17:18:31.734Z,20.98
2023-04-09T17:20:59.925Z,21.63
2023-04-09T17:23:27.990Z,22.77
2023-04-09T17:25:58.124Z,22.88
2023-04-09T17:28:26.316Z,22.70
2023-04-09T17:30:54.463Z,23.30
2023-04-09T17:33:22.557Z,23.50
2023-04-09T17:35:50.686Z,23.92
2023-04-09T17:38:21.538Z,25.52
2023-04-09T17:40:49.752Z,23.15
2023-04-09T17:43:19.116Z,24.20
2023-04-09T17:45:47.181Z,25.10
2023-04-09T17:48:15.158Z,24.85
2023-04-09T17:50:43.381Z,24.58
2023-04-09T17:53:11.555Z,25.48
2023-04-09T17:55:39.672Z,25.05
2023-04-09T17:58:07.640Z,25.02
2023-04-09T18:00:37.709Z,25.20
2023-04-09T18:03:06.035Z,24.45
2023-04-09T18:05:35.649Z,24.83
2023-04-09T18:08:03.994Z,25.33
2023-04-09T18:10:32.344Z,24.15
2023-04-09T18:13:00.327Z,23.65
2023-04-09T18:15:28.668Z,25.70
2023-04-09T18:17:58.113Z,30.65
2023-04-09T18:20:26.325Z,39.83
2023-04-09T18:22:55.467Z,37.97
2023-04-09T18:25:23.778Z,34.53
2023-04-09T18:27:51.773Z,39.65
2023-04-09T18:30:20.182Z,32.55
2023-04-09T18:32:49.108Z,28.48
2023-04-09T18:35:18.781Z,25.70
2023-04-09T18:37:46.860Z,27.23
2023-04-09T18:40:17.721Z,24.83
2023-04-09T18:42:46.130Z,25.33
2023-04-09T18:45:14.327Z,24.33
2023-04-09T18:47:42.750Z,24.25
2023-04-09T18:50:12.326Z,24.50
2023-04-09T18:52:41.869Z,23.88
2023-04-09T18:55:10.915Z,24.17
2023-04-09T18:57:39.219Z,24.77
2023-04-09T19:00:08.698Z,23.92
2023-04-09T19:02:37.321Z,24.90
2023-04-09T19:05:07.311Z,23.98
2023-04-09T19:07:36.285Z,21.98
2023-04-09T19:10:06.559Z,22.75
2023-04-09T19:12:34.729Z,25.27
2023-04-09T19:15:04.628Z,26.10
2023-04-09T19:17:33.894Z,24.92
2023-04-09T19:20:02.871Z,25.40
2023-04-09T19:22:31.108Z,24.42
2023-04-09T19:24:59.139Z,23.25
2023-04-09T19:27:28.474Z,28.30
2023-04-09T19:29:58.744Z,29.80
2023-04-09T19:32:26.867Z,32.65
2023-04-09T19:34:54.904Z,28.63
2023-04-09T19:37:27.248Z,33.85
2023-04-09T19:39:55.687Z,33.38
2023-04-09T19:42:23.932Z,31.50
2023-04-09T19:44:53.306Z,33.20
2023-04-09T19:47:21.361Z,30.30
2023-04-09T19:49:49.605Z,30.42
2023-04-09T19:52:17.613Z,30.67
2023-04-09T19:54:46.333Z,30.10
2023-04-09T19:57:15.116Z,32.00
2023-04-09T19:59:43.186Z,32.00
2023-04-09T20:02:12.564Z,34.10
2023-04-09T20:04:41.248Z,32.92
2023-04-09T20:07:09.466Z,31.90
2023-04-09T20:09:41.196Z,32.63
2023-04-09T20:12:10.139Z,31.38
2023-04-09T20:14:39.525Z,30.90
2023-04-09T20:17:08.808Z,30.23
2023-04-09T20:19:38.641Z,27.70
2023-04-09T20:22:06.707Z,27.33
2023-04-09T20:24:35.272Z,28.17
2023-04-09T20:27:03.765Z,27.88
2023-04-09T20:29:31.939Z,27.88
2023-04-09T20:32:00.099Z,27.70
2023-04-09T20:34:28.267Z,27.73
2023-04-09T20:36:58.062Z,27.35
2023-04-09T20:39:27.277Z,28.90
2023-04-09T20:41:56.665Z,27.48
2023-04-09T20:44:25.649Z,28.00
2023-04-09T20:46:53.678Z,29.13
2023-04-09T20:49:22.536Z,27.63
2023-04-09T20:51:51.865Z,30.25
2023-04-09T20:54:22.935Z,28.38
2023-04-09T20:56:51.462Z,28.33
2023-04-09T20:59:20.274Z,29.02
2023-04-09T21:01:48.427Z,28.25
2023-04-09T21:04:16.915Z,29.30
2023-04-09T21:06:45.391Z,29.20
2023-04-09T21:09:13.448Z,27.55
2023-04-09T21:11:42.851Z,29.73
2023-04-09T21:14:12.784Z,30.52
2023-04-09T21:16:40.852Z,29.20
2023-04-09T21:19:09.124Z,30.10
2023-04-09T21:21:38.606Z,28.55
2023-04-09T21:24:06.733Z,26.65
2023-04-09T21:26:49.215Z,25.10
2023-04-09T21:29:20.831Z,27.88
2023-04-09T21:31:49.400Z,28.52
2023-04-09T21:34:17.765Z,28.52
2023-04-09T21:36:46.432Z,29.70
2023-04-09T21:39:14.503Z,29.00
2023-04-09T21:41:42.519Z,29.60
2023-04-09T21:44:10.872Z,30.20
2023-04-09T21:46:41.636Z,30.20
2023-04-09T21:49:09.955Z,29.73
2023-04-09T21:51:38.271Z,27.67
2023-04-09T21:54:07.095Z,29.05
2023-04-09T21:56:36.565Z,29.25
2023-04-09T21:59:05.716Z,29.75
2023-04-09T22:01:34.962Z,29.30
2023-04-09T22:04:04.942Z,30.17
2023-04-09T22:06:33.405Z,31.27
2023-04-09T22:09:01.911Z,31.10
2023-04-09T22:11:30.475Z,30.77
2023-04-09T22:13:58.841Z,31.02
2023-04-09T22:16:27.440Z,29.95
2023-04-09T22:18:56.245Z,27.88
2023-04-09T22:21:27.274Z,29.45
2023-04-09T22:23:55.339Z,31.27
2023-04-09T22:26:23.856Z,28.50
2023-04-09T22:28:52.357Z,29.05
2023-04-09T22:31:21.489Z,28.15
2023-04-09T22:33:49.516Z,27.23
2023-04-09T22:36:17.763Z,26.92
2023-04-09T22:38:47.569Z,24.35
2023-04-09T22:41:17.747Z,25.85
2023-04-09T22:43:46.026Z,24.83
2023-04-09T22:46:14.080Z,26.25
2023-04-09T22:48:45.042Z,25.70
2023-04-09T22:51:14.052Z,26.20
2023-04-09T22:53:42.113Z,22.90
2023-04-09T22:56:12.541Z,24.10
2023-04-09T22:58:41.342Z,24.58
2023-04-09T23:01:09.573Z,24.70
2023-04-09T23:03:37.671Z,23.65
2023-04-09T23:06:06.616Z,24.70
2023-04-09T23:08:34.633Z,24.52
2023-04-09T23:11:02.640Z,24.40
2023-04-09T23:13:32.278Z,22.98
2023-04-09T23:16:00.452Z,24.08
2023-04-09T23:18:28.614Z,23.15
2023-04-09T23:20:56.672Z,23.58
2023-04-09T23:23:24.687Z,23.05
2023-04-09T23:25:52.975Z,22.67
2023-04-09T23:28:20.999Z,24.10
2023-04-09T23:30:51.207Z,22.77
2023-04-09T23:33:19.479Z,23.90
2023-04-09T23:35:47.990Z,24.45
2023-04-09T23:38:16.751Z,23.85
2023-04-09T23:40:44.819Z,22.88
2023-04-09T23:43:13.118Z,24.05
2023-04-09T23:45:41.247Z,24.27
2023-04-09T23:48:11.770Z,25.60
2023-04-09T23:50:40.445Z,24.38
2023-04-09T23:53:08.595Z,25.20
2023-04-09T23:55:40.833Z,27.00
2023-04-09T23:58:09.649Z,26.52
